Airfield :
LOGIN :

Register | Disclaimer

   EN    FR    IT 

 










Legend :    VFR   Marginal VFR   IFR   Intensive IFR   Very Intensive IFR
Visi :
Ceiling :
>= 8 km
>= 3000ft
5 to 8 km
1000 to 3000 ft
1500m to 5 km
500 to 1000 ft
800 to 1500m
200 to 500 ft
< 800m
< 200 ft
Symbols :   Thunderstorms  Fog  Heavy snow  Heavy precipitations  Wind > 20 kt
SIGMETs :     Misc.  Thunderstorms  Icing  Turbulence  Mountain Waves  Volcanic Ashes






- Airport Elevation : 162 ft
- IATA code : BOD


LFBD - Bordeaux / Merignac

CURRENT METAR :
  • 231000Z AUTO 07005KT 030V100 CAVOK 12/04 Q1026 NOSIG

EXPIRED METARs :
  • 230930Z AUTO 08006KT 050V110 CAVOK 11/04 Q1026 NOSIG
  • 230900Z AUTO 08006KT 050V110 CAVOK 10/04 Q1026 NOSIG
  • 230830Z AUTO 08004KT 050V110 CAVOK 09/04 Q1026 NOSIG
  • 230800Z AUTO 05004KT CAVOK 08/04 Q1026 NOSIG

TAF TAF LFBD
Valid from the 23 at 06:00 until the 24 at 12:00 UTC


230500Z 2306/2412 07005KT CAVOK TX18/2412Z TN03/2404Z
BECMG 2316/2318 VRB02KT
PROB30
TEMPO 2404/2406 MIFG
ATIS : +33 5 57 92 81 04



MET'MAP, your aeronautical weather chart ! - Copyright ORBIFLY December 2007 - Disclaimer

ORBIFLY MET'MAP TEAM :

Programming & Development : Alexandra Zaïnal
Concept & original design : Baudouin d'Aumeries
Assistance for programming : Marc-Olivier Méhu
Technical & hardware support : Manuel Goepfert

Contact : metmap@orbifly.com




SOURCES & CREDITS :

   NOAA